createdAt,value
2022-11-10T00:02:31.545Z,4.87
2022-11-10T00:05:45.520Z,4.91
2022-11-10T00:09:48.658Z,4.70
2022-11-10T00:12:35.783Z,4.87
2022-11-10T00:15:40.243Z,4.69
2022-11-10T00:27:25.580Z,4.47
2022-11-10T00:30:16.735Z,4.59
2022-11-10T00:33:03.232Z,4.63
2022-11-10T00:35:50.414Z,4.72
2022-11-10T00:38:37.230Z,4.71
2022-11-10T00:41:24.340Z,4.62
2022-11-10T00:45:07.201Z,4.75
2022-11-10T00:49:33.507Z,4.82
2022-11-10T00:52:20.024Z,4.87
2022-11-10T00:55:07.483Z,4.98
2022-11-10T00:58:22.439Z,5.01
2022-11-10T01:01:11.152Z,5.04
2022-11-10T01:04:47.818Z,5.05
2022-11-10T01:07:40.399Z,5.02
2022-11-10T01:10:27.700Z,5.01
2022-11-10T01:14:30.720Z,5.14
2022-11-10T01:17:19.011Z,5.19
2022-11-10T01:20:34.777Z,5.16
2022-11-10T01:23:21.841Z,5.05
2022-11-10T01:26:35.274Z,4.99
2022-11-10T01:30:43.713Z,4.93
2022-11-10T01:33:32.292Z,4.95
2022-11-10T01:36:19.051Z,4.81
2022-11-10T01:39:06.141Z,4.88
2022-11-10T01:43:11.736Z,4.96
2022-11-10T01:47:40.479Z,4.93
2022-11-10T01:50:34.560Z,4.82
2022-11-10T01:53:24.981Z,4.87
2022-11-10T01:56:13.227Z,5.00
2022-11-10T01:59:02.472Z,4.74
2022-11-10T02:02:43.905Z,4.94
2022-11-10T02:05:32.280Z,4.95
2022-11-10T02:08:19.868Z,4.93
2022-11-10T02:11:37.231Z,4.89
2022-11-10T02:14:24.180Z,4.96
2022-11-10T02:17:37.499Z,4.79
2022-11-10T02:20:24.311Z,4.82
2022-11-10T02:27:30.815Z,4.65
2022-11-10T02:30:18.278Z,4.83
2022-11-10T02:33:30.336Z,4.91
2022-11-10T02:36:17.308Z,4.75
2022-11-10T02:39:55.351Z,4.75
2022-11-10T02:44:22.541Z,4.68
2022-11-10T02:47:10.458Z,4.59
2022-11-10T02:49:57.057Z,4.48
2022-11-10T02:53:37.190Z,4.44
2022-11-10T02:58:05.546Z,4.47
2022-11-10T03:01:44.944Z,4.57
2022-11-10T03:13:59.923Z,4.65
2022-11-10T03:17:18.322Z,4.72
2022-11-10T03:20:06.217Z,4.72
2022-11-10T03:22:53.088Z,4.80
2022-11-10T03:26:08.255Z,4.74
2022-11-10T03:30:36.578Z,4.63
2022-11-10T03:38:45.875Z,4.84
2022-11-10T03:41:39.909Z,4.91
2022-11-10T04:16:55.477Z,4.76
2022-11-10T04:21:21.548Z,4.78
2022-11-10T04:24:59.000Z,4.71
2022-11-10T04:42:53.718Z,4.33
2022-11-10T04:47:25.251Z,4.31
2022-11-10T04:50:13.334Z,4.40
2022-11-10T04:53:00.423Z,4.49
2022-11-10T04:57:01.915Z,4.43
2022-11-10T05:01:30.655Z,4.50
2022-11-10T05:04:17.386Z,4.65
2022-11-10T05:13:31.659Z,4.68
2022-11-10T05:16:19.690Z,4.75
2022-11-10T05:25:40.759Z,4.66
2022-11-10T05:35:01.673Z,4.85
2022-11-10T05:37:50.115Z,4.73
2022-11-10T05:40:37.160Z,4.50
2022-11-10T05:58:35.991Z,4.68
2022-11-10T06:03:04.119Z,4.70
2022-11-10T06:10:24.791Z,5.15
2022-11-10T06:13:38.002Z,4.91
2022-11-10T06:16:24.737Z,4.78
2022-11-10T06:19:13.978Z,4.78
2022-11-10T06:43:42.092Z,5.28
2022-11-10T06:48:10.746Z,5.51
2022-11-10T06:51:24.584Z,5.66
2022-11-10T06:54:15.896Z,5.79
2022-11-10T06:57:33.000Z,5.66
2022-11-10T07:02:00.513Z,5.86
2022-11-10T07:04:51.772Z,5.85
2022-11-10T07:07:45.800Z,6.00
2022-11-10T07:10:33.298Z,5.95
2022-11-10T07:13:46.566Z,6.01
2022-11-10T07:16:33.475Z,6.09
2022-11-10T07:19:48.663Z,6.18
2022-11-10T07:22:36.307Z,6.25
2022-11-10T07:26:14.780Z,6.26
2022-11-10T07:30:42.489Z,6.45
2022-11-10T07:33:31.016Z,6.28
2022-11-10T07:37:34.375Z,6.57
2022-11-10T07:45:21.120Z,6.87
2022-11-10T07:56:48.587Z,7.05
2022-11-10T08:01:17.049Z,7.20
2022-11-10T08:04:31.702Z,7.53
2022-11-10T08:07:21.889Z,7.61
2022-11-10T08:11:02.321Z,7.68
2022-11-10T08:15:30.937Z,7.60
2022-11-10T08:18:29.672Z,7.58
2022-11-10T08:21:27.870Z,7.63
2022-11-10T08:24:16.170Z,7.66
2022-11-10T08:27:03.247Z,7.78
2022-11-10T08:29:51.841Z,7.99
2022-11-10T08:32:40.029Z,7.73
2022-11-10T08:36:17.737Z,7.73
2022-11-10T08:39:06.489Z,7.70
2022-11-10T08:41:56.243Z,7.50
2022-11-10T08:44:43.799Z,7.69
2022-11-10T08:47:35.039Z,7.68
2022-11-10T08:50:49.929Z,7.56
2022-11-10T08:53:37.273Z,7.47
2022-11-10T08:56:26.788Z,7.63
2022-11-10T08:59:13.561Z,7.44
2022-11-10T09:02:00.367Z,7.50
2022-11-10T09:04:48.400Z,7.50
2022-11-10T09:07:38.016Z,7.60
2022-11-10T09:10:52.180Z,7.59
2022-11-10T09:13:42.161Z,7.53
2022-11-10T09:41:44.147Z,7.53
2022-11-10T09:46:20.327Z,7.54
2022-11-10T10:09:53.877Z,7.96
2022-11-10T10:14:23.208Z,7.99
2022-11-10T10:27:30.417Z,8.12
2022-11-10T10:32:02.228Z,8.14
2022-11-10T10:45:22.098Z,8.31
2022-11-10T10:59:15.222Z,8.66
2022-11-10T11:02:05.414Z,8.71
2022-11-10T11:14:16.909Z,8.90
2022-11-10T11:22:19.396Z,8.89
2022-11-10T11:26:21.320Z,8.90
2022-11-10T11:30:02.142Z,8.89
2022-11-10T11:34:31.039Z,8.82
2022-11-10T12:00:27.053Z,8.94
2022-11-10T12:04:18.758Z,8.87
2022-11-10T12:07:41.236Z,8.78
2022-11-10T12:11:46.480Z,8.66
2022-11-10T12:46:59.888Z,8.79
2022-11-10T12:50:40.951Z,8.79
2022-11-10T13:03:57.590Z,8.96
2022-11-10T13:07:13.671Z,9.04
2022-11-10T13:14:49.963Z,9.12
2022-11-10T13:19:02.024Z,9.18
2022-11-10T13:22:10.592Z,9.19
2022-11-10T13:26:11.138Z,9.30
2022-11-10T13:53:55.209Z,9.52
2022-11-10T14:06:25.707Z,9.61
2022-11-10T14:09:20.765Z,9.65
2022-11-10T14:12:17.073Z,9.66
2022-11-10T14:15:06.860Z,9.50
2022-11-10T14:17:55.152Z,9.43
2022-11-10T14:20:43.745Z,9.47
2022-11-10T14:23:36.174Z,9.49
2022-11-10T14:26:27.272Z,9.59
2022-11-10T14:30:07.142Z,9.45
2022-11-10T14:42:23.221Z,9.27
2022-11-10T14:49:23.085Z,9.23
2022-11-10T14:53:48.868Z,9.28
2022-11-10T15:00:51.973Z,9.31
2022-11-10T15:10:16.316Z,8.98
2022-11-10T15:13:59.452Z,8.85
2022-11-10T15:21:06.210Z,8.59
2022-11-10T15:29:34.888Z,8.29
2022-11-10T15:32:59.442Z,8.36
2022-11-10T15:35:49.204Z,8.40
2022-11-10T15:40:24.004Z,8.32
2022-11-10T15:44:52.363Z,8.09
2022-11-10T15:47:39.730Z,7.92
2022-11-10T15:56:17.371Z,7.82
2022-11-10T16:00:43.307Z,7.81
2022-11-10T16:03:56.821Z,7.67
2022-11-10T16:08:26.536Z,7.75
2022-11-10T16:11:43.405Z,7.93
2022-11-10T16:16:12.274Z,7.79
2022-11-10T16:18:59.210Z,7.76
2022-11-10T16:23:27.370Z,7.84
2022-11-10T16:26:18.856Z,7.94
2022-11-10T16:39:15.545Z,7.45
2022-11-10T16:47:25.326Z,7.46
2022-11-10T16:51:58.944Z,7.22
2022-11-10T16:59:14.670Z,6.95
2022-11-10T17:03:43.725Z,6.90
2022-11-10T17:06:32.079Z,6.84
2022-11-10T17:10:15.271Z,6.85
2022-11-10T17:14:43.254Z,7.05
2022-11-10T17:27:08.223Z,6.90
2022-11-10T17:34:24.434Z,6.25
2022-11-10T17:43:04.805Z,6.26
2022-11-10T17:47:33.748Z,6.31
2022-11-10T18:10:21.278Z,6.13
2022-11-10T18:23:12.704Z,6.16
2022-11-10T18:27:36.436Z,6.10
2022-11-10T18:49:22.376Z,5.68
2022-11-10T18:53:51.861Z,5.57
2022-11-10T19:01:09.081Z,5.76
2022-11-10T19:04:29.160Z,5.86
2022-11-10T19:08:56.717Z,5.95
2022-11-10T19:12:36.432Z,5.43
2022-11-10T19:17:03.797Z,5.32
2022-11-10T19:40:10.003Z,4.99
2022-11-10T19:43:03.124Z,4.76
2022-11-10T19:52:12.613Z,4.65
2022-11-10T20:09:26.046Z,3.39
2022-11-10T20:22:01.643Z,2.96
2022-11-10T20:26:29.990Z,2.92
2022-11-10T20:35:03.379Z,3.12
2022-11-10T20:37:54.728Z,3.20
